createdAt,value
2022-12-23T00:01:59.034Z,6.60
2022-12-23T00:05:21.272Z,6.60
2022-12-23T00:08:44.354Z,6.50
2022-12-23T00:12:25.180Z,6.60
2022-12-23T00:15:47.143Z,6.50
2022-12-23T00:19:09.087Z,6.50
2022-12-23T00:22:50.003Z,6.50
2022-12-23T00:26:18.831Z,6.50
2022-12-23T00:29:40.822Z,6.40
2022-12-23T00:33:02.828Z,6.40
2022-12-23T00:36:28.026Z,6.40
2022-12-23T00:40:09.097Z,6.40
2022-12-23T00:43:31.034Z,6.40
2022-12-23T00:46:53.261Z,6.40
2022-12-23T00:50:15.278Z,6.40
2022-12-23T00:53:37.310Z,6.40
2022-12-23T00:57:00.511Z,6.40
2022-12-23T01:00:42.685Z,6.40
2022-12-23T01:04:23.343Z,6.40
2022-12-23T01:07:45.289Z,6.40
2022-12-23T01:11:10.216Z,6.40
2022-12-23T01:14:32.451Z,6.30
2022-12-23T01:17:54.483Z,6.40
2022-12-23T01:21:16.442Z,6.40
2022-12-23T01:24:38.571Z,6.50
2022-12-23T01:28:00.566Z,6.50
2022-12-23T01:31:24.445Z,6.50
2022-12-23T01:34:46.536Z,6.50
2022-12-23T01:38:08.486Z,6.50
2022-12-23T01:41:51.319Z,6.50
2022-12-23T01:45:19.239Z,6.50
2022-12-23T01:48:44.173Z,6.50
2022-12-23T01:52:06.236Z,6.50
2022-12-23T01:55:31.172Z,6.50
2022-12-23T01:59:00.196Z,6.50
2022-12-23T02:02:41.530Z,6.50
2022-12-23T02:06:23.659Z,6.50
2022-12-23T02:09:45.544Z,6.50
2022-12-23T02:13:16.358Z,6.50
2022-12-23T02:16:50.572Z,6.50
2022-12-23T02:20:18.560Z,6.50
2022-12-23T02:23:46.498Z,6.50
2022-12-23T02:27:23.284Z,6.50
2022-12-23T02:31:19.096Z,6.50
2022-12-23T02:34:48.423Z,6.50
2022-12-23T02:38:35.618Z,6.50
2022-12-23T02:42:06.205Z,6.50
2022-12-23T02:45:49.814Z,6.50
2022-12-23T02:49:20.621Z,6.50
2022-12-23T02:52:45.836Z,6.40
2022-12-23T02:56:10.355Z,6.40
2022-12-23T02:59:41.241Z,6.40
2022-12-23T03:03:03.574Z,6.50
2022-12-23T03:06:30.505Z,6.40
2022-12-23T03:10:11.497Z,6.50
2022-12-23T03:13:54.850Z,6.50
2022-12-23T03:17:28.923Z,6.50
2022-12-23T03:21:38.881Z,6.50
2022-12-23T03:25:38.234Z,6.50
2022-12-23T03:29:15.656Z,6.50
2022-12-23T03:32:47.057Z,6.50
2022-12-23T03:36:25.268Z,6.40
2022-12-23T03:39:52.891Z,6.50
2022-12-23T03:43:43.480Z,6.50
2022-12-23T03:47:18.304Z,6.50
2022-12-23T03:50:42.934Z,6.50
2022-12-23T03:54:10.150Z,6.50
2022-12-23T03:57:58.373Z,6.50
2022-12-23T04:01:23.236Z,6.50
2022-12-23T04:04:51.441Z,6.50
2022-12-23T04:08:24.379Z,6.40
2022-12-23T04:11:46.555Z,6.40
2022-12-23T04:15:12.849Z,6.40
2022-12-23T04:18:35.577Z,6.30
2022-12-23T04:21:57.971Z,6.30
2022-12-23T04:25:20.070Z,6.30
2022-12-23T04:28:42.039Z,6.30
2022-12-23T04:32:04.260Z,6.30
2022-12-23T04:35:26.280Z,6.30
2022-12-23T04:38:48.218Z,6.30
2022-12-23T04:42:10.398Z,6.30
2022-12-23T04:45:33.288Z,6.20
2022-12-23T04:48:55.276Z,6.20
2022-12-23T04:52:17.256Z,6.10
2022-12-23T04:55:39.259Z,6.10
2022-12-23T04:59:02.407Z,6.10
2022-12-23T05:02:24.445Z,6.10
2022-12-23T05:05:46.517Z,6.10
2022-12-23T05:09:08.963Z,6.00
2022-12-23T05:12:31.586Z,6.00
2022-12-23T05:15:55.067Z,6.10
2022-12-23T05:19:17.220Z,6.00
2022-12-23T05:22:39.194Z,6.10
2022-12-23T05:26:01.324Z,6.00
2022-12-23T05:29:23.237Z,6.10
2022-12-23T05:32:45.314Z,6.10
2022-12-23T05:36:07.553Z,6.10
2022-12-23T05:39:29.593Z,6.20
2022-12-23T05:42:51.615Z,6.20
2022-12-23T05:46:13.761Z,6.20
2022-12-23T05:49:35.755Z,6.20
2022-12-23T05:52:57.878Z,6.20
2022-12-23T05:56:19.882Z,6.20
2022-12-23T05:59:41.857Z,6.20
2022-12-23T06:03:03.980Z,6.20
2022-12-23T06:06:26.219Z,6.30
2022-12-23T06:09:48.185Z,6.20
2022-12-23T06:13:10.386Z,6.20
2022-12-23T06:16:32.424Z,6.20
2022-12-23T06:19:54.418Z,6.20
2022-12-23T06:23:16.480Z,6.20
2022-12-23T06:26:38.412Z,6.20
2022-12-23T06:30:00.398Z,6.20
2022-12-23T06:33:23.089Z,6.30
2022-12-23T06:36:45.068Z,6.30
2022-12-23T06:40:07.543Z,6.30
2022-12-23T06:43:29.545Z,6.30
2022-12-23T06:46:51.632Z,6.40
2022-12-23T06:50:13.647Z,6.40
2022-12-23T06:53:35.644Z,6.40
2022-12-23T06:56:57.632Z,6.40
2022-12-23T07:00:20.238Z,6.40
2022-12-23T07:03:42.318Z,6.40
2022-12-23T07:07:04.359Z,6.40
2022-12-23T07:10:26.337Z,6.40
2022-12-23T07:13:48.799Z,6.40
2022-12-23T07:17:10.845Z,6.40
2022-12-23T07:20:33.038Z,6.40
2022-12-23T07:23:55.073Z,6.40
2022-12-23T07:27:17.051Z,6.40
2022-12-23T07:30:38.985Z,6.40
2022-12-23T07:34:00.890Z,6.30
2022-12-23T07:37:22.825Z,6.30
2022-12-23T07:40:49.100Z,6.40
2022-12-23T07:44:11.015Z,6.40
2022-12-23T07:47:32.977Z,6.50
2022-12-23T07:51:03.692Z,6.60
2022-12-23T07:54:25.665Z,6.70
2022-12-23T07:57:51.688Z,6.80
2022-12-23T08:01:13.774Z,6.80
2022-12-23T08:04:38.392Z,6.90
2022-12-23T08:08:05.022Z,6.90
2022-12-23T08:11:26.977Z,7.00
2022-12-23T08:14:50.458Z,7.10
2022-12-23T08:18:12.369Z,7.20
2022-12-23T08:21:34.753Z,7.30
2022-12-23T08:24:56.695Z,7.40
2022-12-23T08:28:18.639Z,7.50
2022-12-23T08:31:40.633Z,7.50
2022-12-23T08:35:02.619Z,7.40
2022-12-23T08:38:24.812Z,7.40
2022-12-23T08:41:48.318Z,7.40
2022-12-23T08:45:10.707Z,7.40
2022-12-23T08:48:34.311Z,7.40
2022-12-23T08:51:56.320Z,7.50
2022-12-23T08:55:18.404Z,7.60
2022-12-23T08:58:45.561Z,7.60
2022-12-23T09:02:10.456Z,7.50
2022-12-23T09:05:32.793Z,7.50
2022-12-23T09:08:55.587Z,7.60
2022-12-23T09:12:17.539Z,7.70
2022-12-23T09:15:43.577Z,8.00
2022-12-23T09:19:05.752Z,8.20
2022-12-23T09:22:27.731Z,8.40
2022-12-23T09:25:49.684Z,8.70
2022-12-23T09:29:11.616Z,9.00
2022-12-23T09:32:33.585Z,9.20
2022-12-23T09:36:00.345Z,9.20
2022-12-23T09:39:22.518Z,9.20
2022-12-23T09:43:18.544Z,9.00
2022-12-23T09:46:51.850Z,8.80
2022-12-23T09:50:32.052Z,9.00
2022-12-23T09:53:59.963Z,9.20
2022-12-23T09:57:58.699Z,9.30
2022-12-23T10:01:49.015Z,9.40
2022-12-23T10:05:24.598Z,9.60
2022-12-23T10:08:50.391Z,9.50
2022-12-23T10:12:39.382Z,9.70
2022-12-23T10:16:08.143Z,9.90
2022-12-23T10:19:43.227Z,9.90
2022-12-23T10:23:12.818Z,9.90
2022-12-23T10:26:47.197Z,10.00
2022-12-23T10:30:42.552Z,10.10
2022-12-23T10:34:22.393Z,10.30
2022-12-23T10:37:53.390Z,10.80
2022-12-23T10:41:27.622Z,11.00
2022-12-23T10:44:49.510Z,11.40
2022-12-23T10:48:50.720Z,11.40
2022-12-23T10:52:24.118Z,11.10
2022-12-23T10:55:46.394Z,10.50
2022-12-23T10:59:15.938Z,10.40
2022-12-23T11:03:07.059Z,10.60
2022-12-23T11:06:37.061Z,10.50
2022-12-23T11:10:13.174Z,10.40
2022-12-23T11:13:43.878Z,10.30
2022-12-23T11:17:22.250Z,10.30
2022-12-23T11:21:00.894Z,10.30
2022-12-23T11:24:24.061Z,10.20
2022-12-23T11:27:46.886Z,10.10
2022-12-23T11:31:14.658Z,10.10
2022-12-23T11:34:38.277Z,10.10
2022-12-23T11:38:02.019Z,10.10
2022-12-23T11:41:28.773Z,10.10
2022-12-23T11:44:54.060Z,10.30
2022-12-23T11:48:30.346Z,10.30
2022-12-23T11:52:06.235Z,10.40
2022-12-23T11:55:32.929Z,10.30
2022-12-23T11:59:02.965Z,10.40
2022-12-23T12:02:34.551Z,10.40
2022-12-23T12:06:00.961Z,10.20
2022-12-23T12:09:24.246Z,10.20
2022-12-23T12:12:52.771Z,10.30
2022-12-23T12:16:34.485Z,10.20
2022-12-23T12:20:05.865Z,10.10
2022-12-23T12:24:08.405Z,10.20
2022-12-23T12:27:38.406Z,10.30
2022-12-23T12:31:13.314Z,10.50
2022-12-23T12:34:51.591Z,10.60
2022-12-23T12:38:27.823Z,10.80
2022-12-23T12:42:11.672Z,10.70
2022-12-23T12:45:42.357Z,10.60
2022-12-23T12:49:22.508Z,10.50
2022-12-23T12:52:44.957Z,10.30
2022-12-23T12:56:15.837Z,10.20
2022-12-23T12:59:40.873Z,10.10
2022-12-23T13:03:40.758Z,9.90
2022-12-23T13:07:32.099Z,9.80
2022-12-23T13:11:09.823Z,9.60
2022-12-23T13:14:43.868Z,9.60
2022-12-23T13:18:05.825Z,9.60
2022-12-23T13:22:01.570Z,9.60
2022-12-23T13:25:25.679Z,9.60
2022-12-23T13:28:59.695Z,9.50
2022-12-23T13:32:36.715Z,9.50
2022-12-23T13:36:24.079Z,9.50
2022-12-23T13:40:03.366Z,9.40
2022-12-23T13:43:28.950Z,9.40
2022-12-23T13:47:14.848Z,9.40
2022-12-23T13:50:50.645Z,9.40
2022-12-23T13:54:20.733Z,9.40
2022-12-23T13:58:07.525Z,9.40
2022-12-23T14:01:44.817Z,9.30
2022-12-23T14:05:26.568Z,9.20
2022-12-23T14:08:49.602Z,9.10
2022-12-23T14:12:27.947Z,9.10
2022-12-23T14:16:02.216Z,9.00
2022-12-23T14:19:48.792Z,9.10
2022-12-23T14:23:19.723Z,9.00
2022-12-23T14:27:02.413Z,9.00
2022-12-23T14:30:36.139Z,9.10
2022-12-23T14:34:23.156Z,9.10
2022-12-23T14:38:05.053Z,9.10
2022-12-23T14:41:39.233Z,9.10
2022-12-23T14:45:28.734Z,9.00
2022-12-23T14:48:59.594Z,8.90
2022-12-23T14:52:40.747Z,8.90
2022-12-23T14:56:15.056Z,8.90
2022-12-23T15:00:12.915Z,8.80
2022-12-23T15:03:42.104Z,8.80
2022-12-23T15:07:07.271Z,8.70
2022-12-23T15:10:37.999Z,8.60
2022-12-23T15:14:08.939Z,8.50
2022-12-23T15:17:38.198Z,8.30
2022-12-23T15:21:09.793Z,8.20
2022-12-23T15:24:31.809Z,8.00
2022-12-23T15:28:01.576Z,7.80
2022-12-23T15:31:43.311Z,7.70
2022-12-23T15:35:07.381Z,7.70
2022-12-23T15:38:31.803Z,7.60
2022-12-23T15:41:53.820Z,7.50
2022-12-23T15:45:37.760Z,7.40
2022-12-23T15:48:59.849Z,7.30
2022-12-23T15:52:22.480Z,7.10
2022-12-23T15:55:45.214Z,7.10
2022-12-23T15:59:21.128Z,7.00
2022-12-23T16:03:01.507Z,7.00
2022-12-23T16:06:29.792Z,6.90
2022-12-23T16:09:54.852Z,6.90
2022-12-23T16:13:20.311Z,6.90
2022-12-23T16:16:43.488Z,6.80
2022-12-23T16:20:26.428Z,6.80
2022-12-23T16:23:53.012Z,6.70
2022-12-23T16:27:19.269Z,6.60
2022-12-23T16:30:42.807Z,6.60
2022-12-23T16:34:07.869Z,6.60
2022-12-23T16:37:29.940Z,6.60
2022-12-23T16:40:56.332Z,6.70
2022-12-23T16:44:18.414Z,6.70
2022-12-23T16:47:42.486Z,6.70
2022-12-23T16:51:13.920Z,6.80
2022-12-23T16:54:35.983Z,6.80
2022-12-23T16:57:58.003Z,6.80
2022-12-23T17:01:24.833Z,6.90
2022-12-23T17:04:46.837Z,6.90
2022-12-23T17:08:10.032Z,6.90
2022-12-23T17:11:42.435Z,6.90
2022-12-23T17:15:05.694Z,7.00
2022-12-23T17:18:27.735Z,7.00
2022-12-23T17:21:55.517Z,7.00
2022-12-23T17:25:26.220Z,6.90
2022-12-23T17:28:48.717Z,7.00
2022-12-23T17:32:13.281Z,7.00
2022-12-23T17:35:35.317Z,7.00
2022-12-23T17:38:57.433Z,7.00
2022-12-23T17:42:25.779Z,7.00
2022-12-23T17:45:48.221Z,7.10
2022-12-23T17:49:11.178Z,7.10
2022-12-23T17:52:33.136Z,7.10
2022-12-23T17:55:55.090Z,7.10
2022-12-23T17:59:17.177Z,7.20
2022-12-23T18:02:39.681Z,7.20
2022-12-23T18:06:02.495Z,7.20
2022-12-23T18:09:24.607Z,7.20
2022-12-23T18:12:50.084Z,7.20
2022-12-23T18:16:13.014Z,7.20
2022-12-23T18:19:35.018Z,7.20
2022-12-23T18:22:59.260Z,7.30
2022-12-23T18:26:21.297Z,7.30
2022-12-23T18:29:43.992Z,7.20
2022-12-23T18:33:08.829Z,7.30
2022-12-23T18:36:35.602Z,7.30
2022-12-23T18:39:57.781Z,7.30
2022-12-23T18:43:22.379Z,7.30
2022-12-23T18:46:44.469Z,7.30
2022-12-23T18:50:06.986Z,7.30
2022-12-23T18:53:29.095Z,7.30
2022-12-23T18:56:51.126Z,7.30
2022-12-23T19:00:19.461Z,7.30
2022-12-23T19:03:41.764Z,7.40
2022-12-23T19:07:03.745Z,7.30
2022-12-23T19:10:29.123Z,7.30
2022-12-23T19:13:51.120Z,7.30
2022-12-23T19:17:13.085Z,7.30
2022-12-23T19:20:35.066Z,7.30
2022-12-23T19:23:58.439Z,7.30
2022-12-23T19:27:20.359Z,7.30
2022-12-23T19:30:42.578Z,7.30
2022-12-23T19:34:08.123Z,7.30
2022-12-23T19:37:33.719Z,7.30
2022-12-23T19:40:58.853Z,7.20
2022-12-23T19:44:20.948Z,7.30
2022-12-23T19:47:43.023Z,7.20
2022-12-23T19:51:13.554Z,7.20
2022-12-23T19:54:35.560Z,7.20
2022-12-23T19:57:57.544Z,7.20
2022-12-23T20:01:22.505Z,7.20
2022-12-23T20:04:44.804Z,7.20
2022-12-23T20:08:09.994Z,7.20
2022-12-23T20:11:58.534Z,7.20
2022-12-23T20:15:20.609Z,7.30
2022-12-23T20:18:42.775Z,7.30
2022-12-23T20:22:04.742Z,7.30
2022-12-23T20:25:26.846Z,7.30
2022-12-23T20:28:49.357Z,7.30
2022-12-23T20:32:11.354Z,7.30
2022-12-23T20:35:33.404Z,7.30
2022-12-23T20:38:56.385Z,7.30
2022-12-23T20:42:18.361Z,7.30
2022-12-23T20:45:42.986Z,7.30
2022-12-23T20:49:05.120Z,7.30
2022-12-23T20:52:29.982Z,7.30
2022-12-23T20:55:52.248Z,7.20
2022-12-23T20:59:14.313Z,7.30
2022-12-23T21:02:36.310Z,7.30
2022-12-23T21:05:58.554Z,7.30
2022-12-23T21:09:20.531Z,7.30
2022-12-23T21:12:42.549Z,7.30
2022-12-23T21:16:09.807Z,7.30
2022-12-23T21:19:31.827Z,7.30
2022-12-23T21:22:53.794Z,7.30
2022-12-23T21:26:18.112Z,7.40
2022-12-23T21:29:40.055Z,7.30
2022-12-23T21:33:03.539Z,7.40
2022-12-23T21:36:31.180Z,7.40
2022-12-23T21:39:53.260Z,7.40
2022-12-23T21:43:15.197Z,7.40
2022-12-23T21:46:37.344Z,7.40
2022-12-23T21:49:59.566Z,7.40
2022-12-23T21:53:21.725Z,7.40
2022-12-23T21:56:43.760Z,7.40
2022-12-23T22:00:06.555Z,7.40
2022-12-23T22:03:28.694Z,7.40
2022-12-23T22:06:50.899Z,7.30
2022-12-23T22:10:12.948Z,7.30
2022-12-23T22:13:35.024Z,7.30
2022-12-23T22:16:57.192Z,7.40
2022-12-23T22:20:19.679Z,7.30
2022-12-23T22:23:42.648Z,7.40
2022-12-23T22:27:04.647Z,7.30
2022-12-23T22:30:27.045Z,7.30
2022-12-23T22:33:49.084Z,7.30
2022-12-23T22:37:11.231Z,7.30
2022-12-23T22:40:33.431Z,7.30
2022-12-23T22:43:56.216Z,7.30
2022-12-23T22:47:18.705Z,7.30
2022-12-23T22:50:40.919Z,7.30
2022-12-23T22:54:04.243Z,7.30
2022-12-23T22:57:26.245Z,7.30
2022-12-23T23:00:48.268Z,7.30
2022-12-23T23:04:10.663Z,7.30
2022-12-23T23:07:32.709Z,7.30
2022-12-23T23:10:57.276Z,7.30
2022-12-23T23:14:19.942Z,7.30
2022-12-23T23:17:41.900Z,7.30
2022-12-23T23:21:03.941Z,7.30
2022-12-23T23:24:31.069Z,7.30
2022-12-23T23:27:53.610Z,7.30
2022-12-23T23:34:57.634Z,7.30
2022-12-23T23:38:19.564Z,7.30
2022-12-23T23:41:42.204Z,7.30
2022-12-23T23:45:04.619Z,7.30
2022-12-23T23:48:26.590Z,7.30
2022-12-23T23:51:49.362Z,7.30
2022-12-23T23:55:11.486Z,7.30
2022-12-23T23:58:34.550Z,7.30
